Time;durP1;ratioP1;P1;durP2;ratioP2;P2;SDS_P1;SDS_P2;PMS_P1;PMS_P2;Temp;Humidity;BMP_temperature;BMP_pressure;BME280_temperature;BME280_humidity;BME280_pressure;Samples;Min_cycle;Max_cycle;Signal;HPM_P1;HPM_P2
2023/09/30 00:02:05;;;;;;;4.43;1.00;;;13.10;99.90;;;;;;5025378;28;20394;-74
2023/09/30 00:04:30;;;;;;;5.60;1.40;;;13.10;99.90;;;;;;5024556;28;20049;-74
2023/09/30 00:06:56;;;;;;;6.07;1.13;;;13.10;99.90;;;;;;5022664;28;20033;-74
2023/09/30 00:09:22;;;;;;;13.73;1.58;;;13.10;99.90;;;;;;5024792;28;20120;-74
2023/09/30 00:11:47;;;;;;;8.23;1.35;;;13.00;99.90;;;;;;5021060;28;20498;-73
2023/09/30 00:14:13;;;;;;;7.82;1.35;;;13.00;99.90;;;;;;5007541;28;20171;-74
2023/09/30 00:16:39;;;;;;;3.45;1.15;;;13.10;99.90;;;;;;5024141;28;20040;-74
2023/09/30 00:19:04;;;;;;;7.65;1.60;;;13.00;99.90;;;;;;5021939;28;20492;-74
2023/09/30 00:21:30;;;;;;;9.30;1.73;;;13.00;99.90;;;;;;5024136;28;20732;-74
2023/09/30 00:23:56;;;;;;;2.63;1.20;;;13.00;99.90;;;;;;5038575;28;20175;-74
2023/09/30 00:26:22;;;;;;;7.65;1.48;;;13.00;99.90;;;;;;5021491;28;20311;-74
2023/09/30 00:28:47;;;;;;;4.93;1.50;;;13.00;99.90;;;;;;5005733;28;20065;-74
2023/09/30 00:31:13;;;;;;;6.22;1.08;;;13.00;99.90;;;;;;5006159;28;20041;-74
2023/09/30 00:33:38;;;;;;;3.20;1.23;;;13.00;99.90;;;;;;5027331;28;20045;-74
2023/09/30 00:36:08;;;;;;;3.17;1.27;;;13.00;99.90;;;;;;5022414;28;20045;-74
2023/09/30 00:38:35;;;;;;;5.82;1.23;;;12.90;99.90;;;;;;5027306;28;20042;-74
2023/09/30 00:41:00;;;;;;;8.50;1.30;;;12.90;99.90;;;;;;5025771;28;20124;-74
2023/09/30 00:43:26;;;;;;;4.85;1.30;;;13.00;99.90;;;;;;5026934;28;20144;-74
2023/09/30 00:46:22;;;;;;;4.05;1.48;;;12.90;99.90;;;;;;5014304;28;20067;-74
2023/09/30 00:48:48;;;;;;;4.20;1.30;;;13.00;99.90;;;;;;5003903;28;20068;-74
2023/09/30 00:51:14;;;;;;;6.55;1.63;;;12.90;99.90;;;;;;5013776;28;20116;-74
2023/09/30 00:53:40;;;;;;;9.10;2.03;;;13.00;99.90;;;;;;5027084;28;20133;-74
2023/09/30 00:56:06;;;;;;;5.63;1.40;;;13.00;99.90;;;;;;5041795;28;20380;-74
2023/09/30 00:58:34;;;;;;;5.55;1.23;;;13.00;99.90;;;;;;5024104;28;20083;-74
2023/09/30 01:00:59;;;;;;;4.28;1.40;;;13.00;99.90;;;;;;5025805;28;20538;-74
2023/09/30 01:03:25;;;;;;;6.20;1.40;;;13.00;99.90;;;;;;5026235;28;20037;-74
2023/09/30 01:05:51;;;;;;;5.72;1.50;;;13.00;99.90;;;;;;5026530;28;20037;-74
2023/09/30 01:08:18;;;;;;;4.80;1.25;;;13.00;99.90;;;;;;5011663;28;20042;-74
2023/09/30 01:10:44;;;;;;;4.78;1.20;;;13.00;99.90;;;;;;5023518;28;20041;-74
2023/09/30 01:13:09;;;;;;;8.13;1.20;;;12.90;99.90;;;;;;5009694;28;20502;-74
2023/09/30 01:15:36;;;;;;;3.67;1.00;;;12.90;99.90;;;;;;5027783;28;20037;-74
2023/09/30 01:18:03;;;;;;;5.13;1.70;;;12.90;99.90;;;;;;5025648;28;20048;-74
2023/09/30 01:20:28;;;;;;;7.50;1.65;;;12.90;99.90;;;;;;5023527;28;20049;-74
2023/09/30 01:22:56;;;;;;;6.18;1.40;;;12.90;99.90;;;;;;5028583;28;20102;-74
2023/09/30 01:25:21;;;;;;;6.10;1.55;;;12.90;99.90;;;;;;5023964;28;20068;-74
2023/09/30 01:27:47;;;;;;;5.43;1.45;;;12.90;99.90;;;;;;5026307;28;20042;-74
2023/09/30 01:30:13;;;;;;;6.97;1.50;;;12.90;99.90;;;;;;5026289;28;20648;-74
2023/09/30 01:32:39;;;;;;;3.67;1.40;;;12.90;99.90;;;;;;5026219;28;20037;-74
2023/09/30 01:35:06;;;;;;;4.20;1.40;;;12.90;99.90;;;;;;5025507;28;20483;-74
2023/09/30 01:37:31;;;;;;;8.23;1.65;;;12.90;99.90;;;;;;5009846;28;20034;-74
2023/09/30 01:39:57;;;;;;;6.65;1.48;;;12.90;99.90;;;;;;5007827;28;20130;-74
2023/09/30 01:42:23;;;;;;;8.98;2.20;;;12.90;99.90;;;;;;5023799;28;20129;-74
2023/09/30 01:44:48;;;;;;;10.15;1.40;;;12.90;99.90;;;;;;5027288;28;20128;-74
2023/09/30 01:47:14;;;;;;;6.15;1.48;;;12.90;99.90;;;;;;5027357;28;20038;-74
2023/09/30 01:49:39;;;;;;;8.73;1.50;;;12.80;99.90;;;;;;5027891;28;20041;-74
2023/09/30 01:52:05;;;;;;;7.22;1.83;;;12.80;99.90;;;;;;5028620;28;20495;-74
2023/09/30 01:54:30;;;;;;;4.10;1.48;;;12.80;99.90;;;;;;5024402;28;20545;-73
2023/09/30 01:56:56;;;;;;;10.27;1.80;;;12.80;99.90;;;;;;5023835;28;20610;-74
2023/09/30 01:59:22;;;;;;;6.55;1.52;;;12.80;99.90;;;;;;5023062;28;20088;-74
2023/09/30 02:01:49;;;;;;;6.25;1.77;;;12.80;99.90;;;;;;5024286;28;20071;-74
2023/09/30 02:04:17;;;;;;;8.70;1.95;;;12.80;99.90;;;;;;5023453;28;20042;-74
2023/09/30 02:06:43;;;;;;;2.40;1.10;;;12.80;99.90;;;;;;5026085;28;20262;-74
2023/09/30 02:09:09;;;;;;;4.82;1.23;;;12.80;99.90;;;;;;5025943;28;20520;-74
2023/09/30 02:11:37;;;;;;;6.95;2.10;;;12.80;99.90;;;;;;5023101;28;20030;-74
2023/09/30 02:14:05;;;;;;;6.18;1.10;;;12.80;99.90;;;;;;5025774;28;20030;-74
2023/09/30 02:16:31;;;;;;;6.45;1.50;;;12.80;99.90;;;;;;5006055;28;20049;-74
2023/09/30 02:18:56;;;;;;;4.60;1.50;;;12.80;99.90;;;;;;5025734;28;20549;-74
2023/09/30 02:21:22;;;;;;;5.63;1.52;;;12.70;99.90;;;;;;5025259;28;20037;-74
2023/09/30 02:23:48;;;;;;;3.53;1.50;;;12.70;99.90;;;;;;5025679;28;20042;-74
2023/09/30 02:26:17;;;;;;;8.98;1.73;;;12.70;99.90;;;;;;5023279;28;20049;-74
2023/09/30 02:28:43;;;;;;;7.25;1.73;;;12.70;99.90;;;;;;5025814;28;20204;-73
2023/09/30 02:31:09;;;;;;;6.95;1.40;;;12.70;99.90;;;;;;5008524;28;20034;-74
2023/09/30 02:33:38;;;;;;;4.82;1.70;;;12.70;99.90;;;;;;5025327;28;20041;-73
2023/09/30 02:36:07;;;;;;;9.60;2.10;;;12.70;99.90;;;;;;5021814;28;20052;-73
2023/09/30 02:38:32;;;;;;;8.05;1.98;;;12.70;99.90;;;;;;5005760;28;20047;-74
2023/09/30 02:40:58;;;;;;;5.80;1.40;;;12.70;99.90;;;;;;5022870;28;20566;-73
2023/09/30 02:43:24;;;;;;;7.68;1.75;;;12.70;99.90;;;;;;5025145;28;20045;-74
2023/09/30 02:45:50;;;;;;;5.13;1.48;;;12.70;99.90;;;;;;5024487;28;20131;-74
2023/09/30 02:48:15;;;;;;;5.43;1.42;;;12.70;99.90;;;;;;5021946;28;20107;-74
2023/09/30 02:50:47;;;;;;;6.38;1.85;;;12.70;99.90;;;;;;5023426;28;20458;-74
2023/09/30 02:53:13;;;;;;;7.57;1.33;;;12.70;99.90;;;;;;5025694;28;20048;-74
2023/09/30 02:55:40;;;;;;;4.22;1.48;;;12.70;99.90;;;;;;5022628;28;20051;-74
2023/09/30 02:58:07;;;;;;;6.88;2.05;;;12.70;99.90;;;;;;5024162;28;20450;-74
2023/09/30 03:00:33;;;;;;;4.97;1.30;;;12.70;99.90;;;;;;5023862;28;20060;-74
2023/09/30 03:03:01;;;;;;;7.63;1.88;;;12.70;99.90;;;;;;5024969;28;20033;-74
2023/09/30 03:05:27;;;;;;;4.20;1.27;;;12.70;99.90;;;;;;5023199;28;20064;-74
2023/09/30 03:07:55;;;;;;;6.05;1.67;;;12.70;99.90;;;;;;5024425;28;20041;-74
2023/09/30 03:10:23;;;;;;;4.70;1.55;;;12.70;99.90;;;;;;5020196;28;20068;-74
2023/09/30 03:12:55;;;;;;;7.47;1.50;;;12.70;99.90;;;;;;5022781;28;20037;-74
2023/09/30 03:15:20;;;;;;;7.95;1.80;;;12.70;99.90;;;;;;5025261;28;20462;-74
2023/09/30 03:17:46;;;;;;;4.13;1.45;;;12.70;99.90;;;;;;5023577;28;20125;-74
2023/09/30 03:20:12;;;;;;;6.10;2.00;;;12.70;99.90;;;;;;5004172;28;20529;-74
2023/09/30 03:22:48;;;;;;;9.57;1.63;;;12.80;99.90;;;;;;5007430;28;20037;-74
2023/09/30 03:25:17;;;;;;;5.10;1.55;;;12.70;99.90;;;;;;5020531;28;20123;-74
2023/09/30 03:27:43;;;;;;;5.90;1.73;;;12.80;99.90;;;;;;5021358;28;20041;-74
2023/09/30 03:30:12;;;;;;;3.53;1.67;;;12.80;99.90;;;;;;5022689;28;20643;-74
2023/09/30 03:32:38;;;;;;;6.53;1.83;;;12.80;99.90;;;;;;5024666;28;20037;-74
2023/09/30 03:35:10;;;;;;;4.60;1.70;;;12.80;99.90;;;;;;5023028;28;20029;-74
2023/09/30 03:37:37;;;;;;;4.25;1.75;;;12.80;99.90;;;;;;5008570;28;20065;-74
2023/09/30 03:40:11;;;;;;;6.80;1.90;;;12.80;99.90;;;;;;5023488;28;20495;-74
2023/09/30 03:42:39;;;;;;;5.60;1.90;;;12.80;99.90;;;;;;5006756;28;20549;-74
2023/09/30 03:45:07;;;;;;;5.35;1.65;;;12.80;99.90;;;;;;5023340;28;20041;-74
2023/09/30 03:47:34;;;;;;;4.00;1.73;;;12.80;99.90;;;;;;5022134;28;20053;-74
2023/09/30 03:49:59;;;;;;;8.55;2.08;;;12.80;99.90;;;;;;5014944;28;20123;-74
2023/09/30 03:52:26;;;;;;;7.80;1.67;;;12.80;99.90;;;;;;5011339;28;20096;-74
2023/09/30 03:54:53;;;;;;;7.13;1.55;;;12.80;99.90;;;;;;5022869;28;20566;-74
2023/09/30 03:57:19;;;;;;;8.57;2.00;;;12.80;99.90;;;;;;5005952;28;20049;-74
2023/09/30 03:59:48;;;;;;;8.50;1.90;;;12.80;99.90;;;;;;5021395;28;20618;-74
2023/09/30 04:02:14;;;;;;;5.78;1.50;;;12.80;99.90;;;;;;5022417;28;20052;-74
2023/09/30 04:04:40;;;;;;;5.10;1.58;;;12.80;99.90;;;;;;5024669;28;20056;-74
2023/09/30 04:07:05;;;;;;;6.25;1.75;;;12.80;99.90;;;;;;5007338;28;20038;-74
2023/09/30 04:09:32;;;;;;;5.50;1.63;;;12.70;99.90;;;;;;5022683;28;20029;-74
2023/09/30 04:11:58;;;;;;;7.18;2.20;;;12.70;99.90;;;;;;5020526;28;20087;-74
2023/09/30 04:14:24;;;;;;;5.32;1.75;;;12.70;99.90;;;;;;5006526;28;20041;-74
2023/09/30 04:16:51;;;;;;;6.25;1.73;;;12.70;99.90;;;;;;5024580;28;20076;-74
2023/09/30 04:19:16;;;;;;;7.90;1.85;;;12.70;99.90;;;;;;5038358;28;20041;-74
2023/09/30 04:21:42;;;;;;;6.05;2.20;;;12.70;99.90;;;;;;5023321;28;20072;-74
2023/09/30 04:24:09;;;;;;;4.32;1.88;;;12.60;99.90;;;;;;5023351;28;20033;-74
2023/09/30 04:26:34;;;;;;;4.28;1.50;;;12.60;99.90;;;;;;5002943;28;20441;-74
2023/09/30 04:29:01;;;;;;;5.63;2.15;;;12.60;99.90;;;;;;5021783;28;20120;-74
2023/09/30 04:31:30;;;;;;;6.72;2.17;;;12.60;99.90;;;;;;5019826;28;20046;-74
2023/09/30 04:33:57;;;;;;;7.60;1.55;;;12.60;99.90;;;;;;5005227;28;20739;-74
2023/09/30 04:36:23;;;;;;;6.32;2.17;;;12.60;99.90;;;;;;5039871;28;20487;-74
2023/09/30 04:38:49;;;;;;;5.15;1.90;;;12.60;99.90;;;;;;5005551;28;20041;-74
2023/09/30 04:41:15;;;;;;;9.77;1.92;;;12.60;99.90;;;;;;5023360;28;20036;-74
2023/09/30 04:43:43;;;;;;;9.20;1.70;;;12.60;99.90;;;;;;5022399;28;20503;-74
2023/09/30 04:46:09;;;;;;;5.30;1.70;;;12.60;99.90;;;;;;5019108;28;20041;-74
2023/09/30 04:48:34;;;;;;;5.18;1.95;;;12.60;99.90;;;;;;5016757;28;20033;-74
2023/09/30 04:51:04;;;;;;;7.35;1.80;;;12.60;99.90;;;;;;5022636;28;20487;-73
2023/09/30 04:53:30;;;;;;;9.05;1.70;;;12.60;99.90;;;;;;5006418;28;20030;-74
2023/09/30 04:55:55;;;;;;;4.82;1.70;;;12.60;99.90;;;;;;5022955;28;20155;-73
2023/09/30 04:58:22;;;;;;;7.78;2.03;;;12.60;99.90;;;;;;5006364;28;20380;-74
2023/09/30 05:00:47;;;;;;;6.13;1.83;;;12.50;99.90;;;;;;5006213;28;20071;-73
2023/09/30 05:03:13;;;;;;;2.90;1.52;;;12.50;99.90;;;;;;5007881;28;20042;-74
2023/09/30 05:05:38;;;;;;;7.78;1.88;;;12.50;99.90;;;;;;5005009;28;20104;-74
2023/09/30 05:08:06;;;;;;;8.15;1.92;;;12.50;99.90;;;;;;5024156;28;20116;-74
2023/09/30 05:10:31;;;;;;;6.60;2.33;;;12.60;99.90;;;;;;5008216;28;20109;-74
2023/09/30 05:12:57;;;;;;;5.10;1.65;;;12.50;99.90;;;;;;5021745;28;20439;-74
2023/09/30 05:15:23;;;;;;;8.25;2.15;;;12.50;99.90;;;;;;5038622;28;20033;-74
2023/09/30 05:17:49;;;;;;;6.15;1.85;;;12.50;99.90;;;;;;5022116;28;20037;-74
2023/09/30 05:20:17;;;;;;;6.32;1.90;;;12.50;99.90;;;;;;5008637;28;20033;-74
2023/09/30 05:22:45;;;;;;;5.00;1.80;;;12.50;99.90;;;;;;5024413;28;20849;-74
2023/09/30 05:25:12;;;;;;;4.95;2.20;;;12.50;99.90;;;;;;5025090;28;20042;-77
2023/09/30 05:27:38;;;;;;;5.95;2.00;;;12.40;99.90;;;;;;5023994;28;20073;-73
2023/09/30 05:30:06;;;;;;;5.80;1.90;;;12.40;99.90;;;;;;5009148;28;20075;-74
2023/09/30 05:32:32;;;;;;;4.82;2.05;;;12.50;99.90;;;;;;5021502;28;20033;-74
2023/09/30 05:34:57;;;;;;;4.97;2.28;;;12.50;99.90;;;;;;5028614;28;20037;-74
2023/09/30 05:37:25;;;;;;;6.80;1.98;;;12.50;99.90;;;;;;5024340;28;20396;-74
2023/09/30 05:39:50;;;;;;;6.22;1.90;;;12.50;99.90;;;;;;5025316;28;20495;-74
2023/09/30 05:42:18;;;;;;;6.00;2.28;;;12.50;99.90;;;;;;5006832;28;20033;-73
2023/09/30 05:44:44;;;;;;;5.35;2.08;;;12.60;99.90;;;;;;5003902;28;20103;-74
2023/09/30 05:47:10;;;;;;;4.65;2.17;;;12.60;99.90;;;;;;5003770;28;20742;-73
2023/09/30 05:49:36;;;;;;;4.78;2.00;;;12.60;99.90;;;;;;5006120;28;20034;-74
2023/09/30 05:52:02;;;;;;;6.78;2.30;;;12.60;99.90;;;;;;5024526;28;20033;-74
2023/09/30 05:54:28;;;;;;;8.88;2.33;;;12.50;99.90;;;;;;5006880;28;20038;-74
2023/09/30 05:56:54;;;;;;;5.63;2.08;;;12.60;99.90;;;;;;5023816;28;20049;-74
2023/09/30 05:59:20;;;;;;;6.05;2.30;;;12.50;99.90;;;;;;5039774;28;20045;-75
2023/09/30 06:01:46;;;;;;;7.47;2.30;;;12.50;99.90;;;;;;5021708;28;20497;-75
2023/09/30 06:04:12;;;;;;;5.93;2.10;;;12.50;99.90;;;;;;5025965;28;20044;-75
2023/09/30 06:06:38;;;;;;;7.70;2.40;;;12.50;99.90;;;;;;5006814;28;20061;-75
2023/09/30 06:09:07;;;;;;;7.18;2.30;;;12.50;99.90;;;;;;5023069;28;20128;-77
2023/09/30 06:11:33;;;;;;;5.63;1.92;;;12.50;99.90;;;;;;5022470;28;20537;-74
2023/09/30 06:14:00;;;;;;;6.18;2.10;;;12.40;99.90;;;;;;5005376;28;20121;-73
2023/09/30 06:16:26;;;;;;;4.78;2.25;;;12.50;99.90;;;;;;5034370;28;20033;-73
2023/09/30 06:18:53;;;;;;;9.40;2.75;;;12.40;99.90;;;;;;5023740;28;20029;-73
2023/09/30 06:21:20;;;;;;;12.00;2.63;;;12.40;99.90;;;;;;5037427;28;20048;-73
2023/09/30 06:23:47;;;;;;;9.60;2.72;;;12.40;99.90;;;;;;5008018;28;20030;-73
2023/09/30 06:26:13;;;;;;;8.95;2.55;;;12.50;99.90;;;;;;5023372;28;20061;-73
2023/09/30 06:28:42;;;;;;;7.63;2.15;;;12.50;99.90;;;;;;5025821;28;20128;-72
2023/09/30 06:31:08;;;;;;;6.07;2.53;;;12.40;99.90;;;;;;5023086;28;20487;-73
2023/09/30 06:33:38;;;;;;;9.85;2.72;;;12.50;99.90;;;;;;5008854;28;20081;-73
2023/09/30 06:36:14;;;;;;;6.38;2.78;;;12.50;99.90;;;;;;5024810;28;20403;-73
2023/09/30 06:38:41;;;;;;;7.82;2.55;;;12.50;99.90;;;;;;5022392;28;20120;-73
2023/09/30 06:41:07;;;;;;;7.75;2.53;;;12.40;99.90;;;;;;5007190;28;20068;-73
2023/09/30 06:43:35;;;;;;;5.63;2.67;;;12.50;99.90;;;;;;5023743;28;20045;-73
2023/09/30 06:46:09;;;;;;;6.00;2.45;;;12.50;99.90;;;;;;5023813;28;20441;-73
2023/09/30 06:48:35;;;;;;;6.28;2.90;;;12.50;99.90;;;;;;5023240;28;20525;-73
2023/09/30 06:51:01;;;;;;;7.05;2.50;;;12.60;99.90;;;;;;5023161;28;20033;-73
2023/09/30 06:53:27;;;;;;;6.70;2.75;;;12.60;99.90;;;;;;5023195;28;20056;-74
2023/09/30 06:55:53;;;;;;;9.68;2.85;;;12.60;99.90;;;;;;5005976;28;20033;-73
2023/09/30 06:58:21;;;;;;;7.18;2.83;;;12.60;99.90;;;;;;5023340;28;20083;-73
2023/09/30 07:00:48;;;;;;;5.72;2.63;;;12.60;99.90;;;;;;5007286;28;20049;-72
2023/09/30 07:03:15;;;;;;;9.10;3.38;;;12.70;99.90;;;;;;5021080;28;20128;-73
2023/09/30 07:05:41;;;;;;;6.03;2.38;;;12.70;99.90;;;;;;5037606;28;20048;-72
2023/09/30 07:08:06;;;;;;;7.70;2.70;;;12.80;99.90;;;;;;5026883;28;20045;-72
2023/09/30 07:10:32;;;;;;;9.23;2.92;;;12.70;99.90;;;;;;5021567;28;20033;-72
2023/09/30 07:12:58;;;;;;;8.40;2.70;;;12.70;99.90;;;;;;5022080;28;20037;-72
2023/09/30 07:15:24;;;;;;;7.22;3.10;;;12.80;99.90;;;;;;5023224;28;20052;-72
2023/09/30 07:17:49;;;;;;;7.10;2.80;;;12.80;99.90;;;;;;5019442;28;20137;-72
2023/09/30 07:20:15;;;;;;;6.15;2.83;;;12.90;99.90;;;;;;5022543;28;20282;-73
2023/09/30 07:22:41;;;;;;;7.38;2.97;;;12.90;99.90;;;;;;5003696;28;20084;-73
2023/09/30 07:25:08;;;;;;;11.30;2.53;;;12.90;99.90;;;;;;5023161;28;20042;-72
2023/09/30 07:27:33;;;;;;;7.25;2.95;;;13.00;99.90;;;;;;5023200;28;20041;-72
2023/09/30 07:29:59;;;;;;;10.80;3.30;;;13.00;99.90;;;;;;5023866;28;20491;-72
2023/09/30 07:32:25;;;;;;;7.43;2.97;;;13.10;99.90;;;;;;5007099;28;20048;-72
2023/09/30 07:34:51;;;;;;;6.45;2.72;;;13.10;99.90;;;;;;5024607;28;20052;-72
2023/09/30 07:37:20;;;;;;;11.07;2.75;;;13.10;99.90;;;;;;5021628;28;20624;-73
2023/09/30 07:39:46;;;;;;;8.55;2.63;;;13.10;99.90;;;;;;5007035;28;20276;-77
2023/09/30 07:42:11;;;;;;;6.15;2.80;;;13.20;99.90;;;;;;5021985;28;20041;-73
2023/09/30 07:44:37;;;;;;;7.35;3.08;;;13.20;99.90;;;;;;5037377;28;20045;-73
2023/09/30 07:47:06;;;;;;;5.45;2.83;;;13.20;99.90;;;;;;5019368;28;20078;-73
2023/09/30 07:49:32;;;;;;;7.47;2.95;;;13.30;99.90;;;;;;5005496;28;20033;-73
2023/09/30 07:51:58;;;;;;;9.75;2.88;;;13.30;99.90;;;;;;5033110;28;20038;-73
2023/09/30 07:54:23;;;;;;;9.52;2.83;;;13.40;99.90;;;;;;5021153;28;20525;-73
2023/09/30 07:56:49;;;;;;;10.85;2.97;;;13.40;99.90;;;;;;4998634;28;20045;-73
2023/09/30 07:59:15;;;;;;;6.43;2.97;;;13.50;99.90;;;;;;5016971;28;20430;-73
2023/09/30 08:01:42;;;;;;;8.98;3.17;;;13.50;99.90;;;;;;5019135;28;20473;-73
2023/09/30 08:04:07;;;;;;;8.57;3.70;;;13.50;99.90;;;;;;5018393;28;20041;-73
2023/09/30 08:06:33;;;;;;;13.23;3.17;;;13.60;99.90;;;;;;5018941;28;20411;-73
2023/09/30 08:08:58;;;;;;;6.82;2.60;;;13.60;99.90;;;;;;5019580;28;20041;-73
2023/09/30 08:11:27;;;;;;;9.82;2.95;;;13.60;99.90;;;;;;5021664;28;20072;-74
2023/09/30 08:13:53;;;;;;;8.50;3.30;;;13.70;99.90;;;;;;5025651;28;20038;-73
2023/09/30 08:16:19;;;;;;;10.38;3.20;;;13.70;99.90;;;;;;5022225;28;20034;-73
2023/09/30 08:18:45;;;;;;;10.70;3.15;;;13.80;99.90;;;;;;5020053;28;20509;-73
2023/09/30 08:21:11;;;;;;;8.27;2.88;;;13.80;99.90;;;;;;5021536;28;20045;-74
2023/09/30 08:23:38;;;;;;;8.30;2.83;;;13.80;99.90;;;;;;5024057;28;20046;-73
2023/09/30 08:26:05;;;;;;;9.82;3.20;;;13.90;99.90;;;;;;5021987;28;20045;-73
2023/09/30 08:28:31;;;;;;;8.73;3.35;;;14.00;99.90;;;;;;5005695;28;20042;-73
2023/09/30 08:31:02;;;;;;;7.53;3.03;;;14.00;99.90;;;;;;5021467;28;20041;-73
2023/09/30 08:33:30;;;;;;;11.98;3.40;;;14.10;99.90;;;;;;5020900;28;20082;-73
2023/09/30 08:35:58;;;;;;;8.10;3.22;;;14.10;99.90;;;;;;5007799;28;20038;-73
2023/09/30 08:38:24;;;;;;;6.53;3.03;;;14.20;99.90;;;;;;5018050;28;20119;-73
2023/09/30 08:40:52;;;;;;;7.00;3.08;;;14.20;99.90;;;;;;5006015;28;20087;-73
2023/09/30 08:43:26;;;;;;;8.10;3.15;;;14.30;99.90;;;;;;5009640;28;20472;-72
2023/09/30 08:45:53;;;;;;;7.25;3.35;;;14.30;99.90;;;;;;5010945;28;20455;-73
2023/09/30 08:48:21;;;;;;;8.70;3.10;;;14.40;99.90;;;;;;5023349;28;20957;-73
2023/09/30 08:50:50;;;;;;;8.18;3.10;;;14.40;99.90;;;;;;5020529;28;20398;-73
2023/09/30 08:53:16;;;;;;;8.27;3.30;;;14.50;99.90;;;;;;5037845;28;21141;-73
2023/09/30 08:55:43;;;;;;;8.60;2.78;;;14.50;99.90;;;;;;5022180;28;20037;-73
2023/09/30 08:58:11;;;;;;;7.13;2.75;;;14.50;99.90;;;;;;5024674;28;20037;-73
2023/09/30 09:00:38;;;;;;;15.75;3.38;;;14.60;99.90;;;;;;5024476;28;20388;-73
2023/09/30 09:03:05;;;;;;;7.38;2.88;;;14.60;99.90;;;;;;5023141;28;20472;-73
2023/09/30 09:05:31;;;;;;;7.28;2.60;;;14.60;99.90;;;;;;5038959;28;20452;-73
2023/09/30 09:07:56;;;;;;;7.07;2.33;;;14.60;99.90;;;;;;5026139;28;20108;-72
2023/09/30 09:10:22;;;;;;;13.30;3.20;;;14.70;99.90;;;;;;5029566;28;20457;-73
2023/09/30 09:12:56;;;;;;;9.63;2.70;;;14.70;99.90;;;;;;5011838;28;20056;-73
2023/09/30 09:15:24;;;;;;;8.90;3.08;;;14.70;99.90;;;;;;5038220;28;20044;-74
2023/09/30 09:17:51;;;;;;;5.53;2.45;;;14.80;99.90;;;;;;5012403;28;20132;-73
2023/09/30 09:20:20;;;;;;;7.15;2.80;;;14.90;99.90;;;;;;5021097;28;20041;-73
2023/09/30 09:22:55;;;;;;;5.72;2.30;;;14.80;99.90;;;;;;5018654;28;20048;-73
2023/09/30 09:25:24;;;;;;;7.68;2.67;;;14.80;99.90;;;;;;5025648;28;20487;-73
2023/09/30 09:27:53;;;;;;;8.55;2.83;;;14.90;99.90;;;;;;5026085;28;20045;-73
2023/09/30 09:30:20;;;;;;;6.65;2.50;;;14.90;99.90;;;;;;5026963;28;20041;-73
2023/09/30 09:32:54;;;;;;;7.63;2.60;;;14.90;99.90;;;;;;5018891;28;20045;-73
2023/09/30 09:35:21;;;;;;;5.82;2.55;;;15.00;99.90;;;;;;5010635;28;20491;-73
2023/09/30 09:37:57;;;;;;;13.20;3.38;;;15.00;99.90;;;;;;5026207;28;20034;-73
2023/09/30 09:40:25;;;;;;;10.13;2.60;;;15.00;99.90;;;;;;5026701;28;20065;-73
2023/09/30 09:42:53;;;;;;;6.90;2.60;;;15.10;99.90;;;;;;5027651;28;20436;-73
2023/09/30 09:45:22;;;;;;;7.28;2.33;;;15.10;99.90;;;;;;5025543;28;20037;-73
2023/09/30 09:47:48;;;;;;;6.50;2.35;;;15.20;99.90;;;;;;5026961;28;20135;-73
2023/09/30 09:50:15;;;;;;;7.18;2.67;;;15.30;99.90;;;;;;5028886;28;20077;-73
2023/09/30 09:52:42;;;;;;;6.25;2.05;;;15.30;99.90;;;;;;5006936;28;20087;-73
2023/09/30 09:55:10;;;;;;;7.22;2.30;;;15.30;99.90;;;;;;5025622;28;20042;-73
2023/09/30 09:57:37;;;;;;;7.28;2.47;;;15.30;99.90;;;;;;5028395;28;20574;-73
2023/09/30 10:00:05;;;;;;;8.88;2.45;;;15.40;99.90;;;;;;5025233;28;20063;-73
2023/09/30 10:02:32;;;;;;;7.70;2.03;;;15.40;99.90;;;;;;5024816;28;20533;-73
2023/09/30 10:04:59;;;;;;;7.40;2.28;;;15.50;99.90;;;;;;5025812;28;20053;-73
2023/09/30 10:07:32;;;;;;;6.32;1.77;;;15.50;99.90;;;;;;5012272;28;20045;-73
2023/09/30 10:10:02;;;;;;;7.70;2.78;;;15.50;99.90;;;;;;5039613;28;20514;-72
2023/09/30 10:12:35;;;;;;;4.63;1.70;;;15.60;99.90;;;;;;5029033;28;20040;-72
2023/09/30 10:15:01;;;;;;;5.72;1.67;;;15.60;99.90;;;;;;5011095;28;20515;-72
2023/09/30 10:17:59;;;;;;;5.15;1.85;;;15.70;99.90;;;;;;5013373;28;20049;-73
2023/09/30 10:20:29;;;;;;;5.65;2.08;;;15.70;99.90;;;;;;5027884;28;20124;-72
2023/09/30 10:23:16;;;;;;;3.63;1.63;;;15.80;99.90;;;;;;5028094;28;20088;-72
2023/09/30 10:25:47;;;;;;;5.90;1.80;;;15.90;99.90;;;;;;5025628;28;20096;-72
2023/09/30 10:28:41;;;;;;;7.40;1.60;;;16.00;99.90;;;;;;5011841;28;20087;-73
2023/09/30 10:31:24;;;;;;;4.15;1.63;;;16.10;99.90;;;;;;5028011;28;20041;-73
2023/09/30 10:34:02;;;;;;;4.03;1.20;;;16.30;99.90;;;;;;5011932;28;20045;-73
2023/09/30 10:36:39;;;;;;;7.93;1.73;;;16.30;99.90;;;;;;5025168;28;20045;-72
2023/09/30 10:39:08;;;;;;;5.00;1.50;;;16.30;99.90;;;;;;5022685;28;20063;-73
2023/09/30 10:41:40;;;;;;;5.82;1.40;;;16.40;99.90;;;;;;5022744;28;20076;-73
2023/09/30 10:44:25;;;;;;;4.95;1.38;;;16.40;99.90;;;;;;5019336;28;20645;-73
2023/09/30 10:46:55;;;;;;;2.67;1.05;;;16.40;99.90;;;;;;5022830;28;20037;-73
2023/09/30 10:49:23;;;;;;;6.68;1.13;;;16.50;99.90;;;;;;5027296;28;20047;-73
2023/09/30 10:51:56;;;;;;;4.53;0.95;;;16.50;99.90;;;;;;5029670;28;20477;-73
2023/09/30 10:54:24;;;;;;;3.47;1.23;;;16.50;99.90;;;;;;5010260;28;20041;-73
2023/09/30 10:56:49;;;;;;;3.80;1.13;;;16.60;99.90;;;;;;5027049;28;20091;-73
2023/09/30 10:59:34;;;;;;;3.70;1.08;;;16.60;99.90;;;;;;5026242;28;20033;-73
2023/09/30 11:02:01;;;;;;;3.67;1.35;;;16.70;99.90;;;;;;5028713;28;20044;-73
2023/09/30 11:04:29;;;;;;;7.47;0.88;;;16.80;99.90;;;;;;5028867;28;20033;-73
2023/09/30 11:06:55;;;;;;;4.15;1.48;;;16.90;99.90;;;;;;5010076;28;20048;-73
2023/09/30 11:09:22;;;;;;;3.20;1.05;;;16.90;99.90;;;;;;5025529;28;20402;-73
2023/09/30 11:11:52;;;;;;;3.13;0.95;;;17.00;99.90;;;;;;5028145;28;20076;-73
2023/09/30 11:14:27;;;;;;;3.55;1.17;;;17.10;99.90;;;;;;5011953;28;21147;-73
2023/09/30 11:16:54;;;;;;;2.03;0.70;;;17.20;99.90;;;;;;5027132;28;20026;-73
2023/09/30 11:19:20;;;;;;;4.35;0.70;;;17.30;99.90;;;;;;5036294;28;20510;-73
2023/09/30 11:21:50;;;;;;;3.55;1.15;;;17.30;99.90;;;;;;5027184;28;20080;-73
2023/09/30 11:24:17;;;;;;;4.38;1.05;;;17.30;99.90;;;;;;5026266;28;20033;-73
2023/09/30 11:26:43;;;;;;;3.47;0.80;;;17.20;99.90;;;;;;5004935;28;20064;-73
2023/09/30 11:29:13;;;;;;;2.63;0.90;;;17.20;99.90;;;;;;5022791;28;20636;-72
2023/09/30 11:31:42;;;;;;;2.30;0.68;;;17.20;99.90;;;;;;5022239;28;20048;-73
2023/09/30 11:34:09;;;;;;;5.05;1.05;;;17.10;99.90;;;;;;5021175;28;20060;-73
2023/09/30 11:36:37;;;;;;;2.78;1.05;;;17.00;99.90;;;;;;5006870;28;20030;-73
2023/09/30 11:39:03;;;;;;;2.40;0.75;;;16.90;99.90;;;;;;5023872;28;20045;-73
2023/09/30 11:41:38;;;;;;;3.85;0.93;;;16.90;99.90;;;;;;5025882;28;20103;-73
2023/09/30 11:44:12;;;;;;;5.72;0.88;;;16.90;99.90;;;;;;5026309;28;20459;-73
2023/09/30 11:46:52;;;;;;;1.50;0.68;;;16.80;99.90;;;;;;5011450;28;20030;-73
2023/09/30 11:49:28;;;;;;;5.05;0.60;;;16.70;99.90;;;;;;5010724;28;20060;-73
2023/09/30 11:51:53;;;;;;;;;;;16.70;99.90;;;;;;5027340;28;20029;-73
2023/09/30 11:54:19;;;;;;;;;;;16.70;99.90;;;;;;5044156;28;19924;-73
2023/09/30 11:56:47;;;;;;;2.95;0.73;;;16.70;99.90;;;;;;5026712;28;19924;-73
2023/09/30 11:59:12;;;;;;;4.45;0.90;;;16.70;99.90;;;;;;5026729;28;20041;-73
2023/09/30 12:01:38;;;;;;;4.05;0.85;;;16.70;99.90;;;;;;5027990;28;20111;-73
2023/09/30 12:04:04;;;;;;;5.40;0.93;;;16.70;99.90;;;;;;5028288;28;20380;-73
2023/09/30 12:06:30;;;;;;;2.08;0.50;;;16.70;99.90;;;;;;5026809;28;20128;-73
2023/09/30 12:08:57;;;;;;;3.53;0.80;;;16.70;99.90;;;;;;5025211;28;20037;-73
2023/09/30 12:11:23;;;;;;;5.88;1.10;;;16.70;99.90;;;;;;5010086;28;20509;-73
2023/09/30 12:13:50;;;;;;;2.22;0.60;;;16.80;99.90;;;;;;5027976;28;20052;-73
2023/09/30 12:16:16;;;;;;;2.55;0.70;;;16.80;99.90;;;;;;5027626;28;20418;-73
2023/09/30 12:18:42;;;;;;;2.35;0.70;;;16.80;99.90;;;;;;5010532;28;20041;-73
2023/09/30 12:21:13;;;;;;;3.97;0.60;;;16.80;99.90;;;;;;5009713;28;20407;-73
2023/09/30 12:23:39;;;;;;;1.90;0.77;;;16.80;99.90;;;;;;5026470;28;20084;-73
2023/09/30 12:26:05;;;;;;;5.47;0.60;;;16.90;99.90;;;;;;5009219;28;20073;-73
2023/09/30 12:28:34;;;;;;;2.83;1.05;;;16.90;99.90;;;;;;5030469;28;20033;-73
2023/09/30 12:31:04;;;;;;;2.97;0.82;;;17.00;99.90;;;;;;5030457;28;20292;-73
2023/09/30 12:33:32;;;;;;;3.13;0.70;;;17.00;99.90;;;;;;5030618;28;20033;-73
2023/09/30 12:35:58;;;;;;;3.28;0.65;;;17.10;99.90;;;;;;5008216;28;20080;-73
2023/09/30 12:38:25;;;;;;;3.80;0.90;;;17.20;99.90;;;;;;5036996;28;20060;-73
2023/09/30 12:40:53;;;;;;;4.85;0.90;;;17.20;99.90;;;;;;5005082;28;20303;-73
2023/09/30 12:43:19;;;;;;;3.80;0.70;;;17.20;99.90;;;;;;5012323;28;20041;-73
2023/09/30 12:45:45;;;;;;;3.58;0.80;;;17.20;99.90;;;;;;5011367;28;20107;-73
2023/09/30 12:48:11;;;;;;;2.42;0.60;;;17.20;99.90;;;;;;5036125;28;20037;-73
2023/09/30 12:50:36;;;;;;;3.58;0.98;;;17.20;99.90;;;;;;5034437;28;20068;-73